createdAt,value
2024-05-09T00:02:04.725Z,8.02
2024-05-09T00:04:34.388Z,8.05
2024-05-09T00:07:04.078Z,8.00
2024-05-09T00:09:38.387Z,7.47
2024-05-09T00:12:08.417Z,7.90
2024-05-09T00:14:38.143Z,7.50
2024-05-09T00:17:07.986Z,7.75
2024-05-09T00:19:37.678Z,8.00
2024-05-09T00:22:07.407Z,7.90
2024-05-09T00:24:45.260Z,8.52
2024-05-09T00:27:14.874Z,7.95
2024-05-09T00:29:44.543Z,8.07
2024-05-09T00:32:14.453Z,8.68
2024-05-09T00:34:46.026Z,8.20
2024-05-09T00:37:16.356Z,8.32
2024-05-09T00:39:48.612Z,8.55
2024-05-09T00:42:18.262Z,8.35
2024-05-09T00:44:47.888Z,8.10
2024-05-09T00:47:18.275Z,8.82
2024-05-09T00:49:48.760Z,7.70
2024-05-09T00:52:18.734Z,8.95
2024-05-09T00:54:50.995Z,8.68
2024-05-09T00:57:20.622Z,9.40
2024-05-09T00:59:50.539Z,8.18
2024-05-09T01:02:20.331Z,8.57
2024-05-09T01:04:50.238Z,8.63
2024-05-09T01:07:19.890Z,9.05
2024-05-09T01:09:52.116Z,9.07
2024-05-09T01:12:27.650Z,8.93
2024-05-09T01:14:57.635Z,8.63
2024-05-09T01:17:30.915Z,7.78
2024-05-09T01:20:00.751Z,7.82
2024-05-09T01:22:31.057Z,9.90
2024-05-09T01:25:03.715Z,8.30
2024-05-09T01:27:36.541Z,8.60
2024-05-09T01:30:09.533Z,8.93
2024-05-09T01:32:44.538Z,8.25
2024-05-09T01:35:16.561Z,8.70
2024-05-09T01:37:46.299Z,7.45
2024-05-09T01:40:25.286Z,8.95
2024-05-09T01:43:03.720Z,9.30
2024-05-09T01:45:33.393Z,8.57
2024-05-09T01:48:03.817Z,9.18
2024-05-09T01:50:38.697Z,8.65
2024-05-09T01:53:11.704Z,8.77
2024-05-09T01:55:44.577Z,9.38
2024-05-09T01:58:14.313Z,9.00
2024-05-09T02:00:45.792Z,8.65
2024-05-09T02:03:17.698Z,8.25
2024-05-09T02:05:50.737Z,8.35
2024-05-09T02:08:21.561Z,8.85
2024-05-09T02:10:54.500Z,9.75
2024-05-09T02:13:24.432Z,9.35
2024-05-09T02:15:54.113Z,8.07
2024-05-09T02:18:23.968Z,8.55
2024-05-09T02:20:53.695Z,8.50
2024-05-09T02:23:23.457Z,9.32
2024-05-09T02:25:58.766Z,8.77
2024-05-09T02:28:28.429Z,8.48
2024-05-09T02:30:58.031Z,9.35
2024-05-09T02:33:27.961Z,9.45
2024-05-09T02:35:57.837Z,9.40
2024-05-09T02:38:25.959Z,8.48
2024-05-09T02:40:58.232Z,9.10
2024-05-09T02:43:27.505Z,9.23
2024-05-09T02:45:57.409Z,9.10
2024-05-09T02:48:24.757Z,9.10
2024-05-09T02:50:55.994Z,9.77
2024-05-09T02:53:22.994Z,9.70
2024-05-09T02:55:52.677Z,9.63
2024-05-09T02:58:22.405Z,8.85
2024-05-09T03:00:52.052Z,8.77
2024-05-09T03:03:19.376Z,10.27
2024-05-09T03:05:49.252Z,10.30
2024-05-09T03:08:18.651Z,10.73
2024-05-09T03:10:48.309Z,9.80
2024-05-09T03:13:16.280Z,10.15
2024-05-09T03:15:48.766Z,8.77
2024-05-09T03:18:16.392Z,10.32
2024-05-09T03:20:46.786Z,10.07
2024-05-09T03:23:14.091Z,10.75
2024-05-09T03:25:43.963Z,9.65
2024-05-09T03:28:11.665Z,10.52
2024-05-09T03:30:43.094Z,10.68
2024-05-09T03:33:19.365Z,10.38
2024-05-09T03:35:48.213Z,10.63
2024-05-09T03:38:20.611Z,11.38
2024-05-09T03:40:51.712Z,10.77
2024-05-09T03:43:23.403Z,10.85
2024-05-09T03:45:57.919Z,11.77
2024-05-09T03:48:31.275Z,11.60
2024-05-09T03:51:04.761Z,10.65
2024-05-09T03:53:43.574Z,10.85
2024-05-09T03:56:20.121Z,11.43
2024-05-09T03:58:50.466Z,11.07
2024-05-09T04:01:30.126Z,11.32
2024-05-09T04:04:09.013Z,10.68
2024-05-09T04:06:39.799Z,10.85
2024-05-09T04:09:23.688Z,10.88
2024-05-09T04:11:59.057Z,10.80
2024-05-09T04:17:10.016Z,10.27
2024-05-09T04:19:49.348Z,10.60
2024-05-09T04:22:23.130Z,9.52
2024-05-09T04:24:56.143Z,9.70
2024-05-09T04:27:25.826Z,9.40
2024-05-09T04:29:58.052Z,9.60
2024-05-09T04:32:28.137Z,10.32
2024-05-09T04:34:57.980Z,9.57
2024-05-09T04:37:32.059Z,9.20
2024-05-09T04:39:59.666Z,9.82
2024-05-09T04:42:49.428Z,9.48
2024-05-09T04:45:19.525Z,9.20
2024-05-09T04:47:56.776Z,9.02
2024-05-09T04:50:36.751Z,8.27
2024-05-09T04:53:18.565Z,8.73
2024-05-09T04:55:58.789Z,8.00
2024-05-09T04:58:29.744Z,8.02
2024-05-09T05:01:00.420Z,8.48
2024-05-09T05:03:36.851Z,8.13
2024-05-09T05:06:14.278Z,8.00
2024-05-09T05:08:47.737Z,8.13
2024-05-09T05:11:23.874Z,8.50
2024-05-09T05:13:52.509Z,7.75
2024-05-09T05:16:32.628Z,9.27
2024-05-09T05:19:02.438Z,8.30
2024-05-09T05:21:38.989Z,7.70
2024-05-09T05:24:06.567Z,9.88
2024-05-09T05:26:36.799Z,8.48
2024-05-09T05:29:11.576Z,9.52
2024-05-09T05:31:43.572Z,8.02
2024-05-09T05:34:10.905Z,9.38
2024-05-09T05:36:43.839Z,9.07
2024-05-09T05:39:13.936Z,8.40
2024-05-09T05:41:43.911Z,9.10
2024-05-09T05:44:14.395Z,10.10
2024-05-09T05:46:55.839Z,8.50
2024-05-09T05:49:26.362Z,9.68
2024-05-09T05:52:07.321Z,9.07
2024-05-09T05:54:36.226Z,8.95
2024-05-09T05:57:06.097Z,9.13
2024-05-09T05:59:36.122Z,8.75
2024-05-09T06:02:07.049Z,9.40
2024-05-09T06:04:36.268Z,9.23
2024-05-09T06:07:13.335Z,9.65
2024-05-09T06:12:25.323Z,9.95
2024-05-09T06:14:57.235Z,8.88
2024-05-09T06:17:34.520Z,8.63
2024-05-09T06:20:07.376Z,9.50
2024-05-09T06:22:45.563Z,9.65
2024-05-09T06:25:12.777Z,8.32
2024-05-09T06:27:52.509Z,8.75
2024-05-09T06:30:35.187Z,8.55
2024-05-09T06:33:10.420Z,9.50
2024-05-09T06:35:42.401Z,9.38
2024-05-09T06:38:18.675Z,8.93
2024-05-09T06:40:52.492Z,9.30
2024-05-09T06:43:27.231Z,9.10
2024-05-09T06:46:17.319Z,8.65
2024-05-09T06:48:48.476Z,9.55
2024-05-09T06:51:20.413Z,9.98
2024-05-09T06:53:53.393Z,10.13
2024-05-09T06:56:25.130Z,9.98
2024-05-09T06:58:57.837Z,10.70
2024-05-09T07:01:25.082Z,10.88
2024-05-09T07:03:59.447Z,10.25
2024-05-09T07:06:29.657Z,8.77
2024-05-09T07:09:14.593Z,10.27
2024-05-09T07:12:03.300Z,8.85
2024-05-09T07:14:38.808Z,9.15
2024-05-09T07:17:08.815Z,15.68
2024-05-09T07:20:27.142Z,9.88
2024-05-09T07:23:04.382Z,9.93
2024-05-09T07:25:36.924Z,24.08
2024-05-09T07:28:04.537Z,21.20
2024-05-09T07:30:35.167Z,13.35
2024-05-09T07:33:24.773Z,9.57
2024-05-09T07:35:55.643Z,9.27
2024-05-09T07:38:24.500Z,9.13
2024-05-09T07:40:57.482Z,8.48
2024-05-09T07:43:24.917Z,7.93
2024-05-09T07:46:37.784Z,8.98
2024-05-09T07:50:35.413Z,8.82
2024-05-09T07:53:29.758Z,7.95
2024-05-09T07:55:01.705Z,8.25
2024-05-09T07:57:36.083Z,7.68
2024-05-09T08:00:30.831Z,7.28
2024-05-09T08:03:01.429Z,7.40
2024-05-09T08:05:28.740Z,6.78
2024-05-09T08:08:00.651Z,6.72
2024-05-09T08:10:29.176Z,5.78
2024-05-09T08:13:06.280Z,6.78
2024-05-09T08:15:35.960Z,12.02
2024-05-09T08:18:11.157Z,9.40
2024-05-09T08:20:38.546Z,5.80
2024-05-09T08:23:09.895Z,6.43
2024-05-09T08:25:36.945Z,5.45
2024-05-09T08:28:22.598Z,5.85
2024-05-09T08:30:49.970Z,5.25
2024-05-09T08:33:19.921Z,5.20
2024-05-09T08:35:49.656Z,5.32
2024-05-09T08:38:19.698Z,5.63
2024-05-09T08:40:49.401Z,5.55
2024-05-09T08:43:22.991Z,5.70
2024-05-09T08:45:53.337Z,5.45
2024-05-09T08:48:27.206Z,5.63
2024-05-09T08:50:54.557Z,5.10
2024-05-09T08:53:32.209Z,5.07
2024-05-09T08:56:01.450Z,5.20
2024-05-09T08:58:34.451Z,4.95
2024-05-09T09:01:07.886Z,5.28
2024-05-09T09:03:39.853Z,4.93
2024-05-09T09:06:14.727Z,4.07
2024-05-09T09:08:46.618Z,4.10
2024-05-09T09:11:13.801Z,4.05
2024-05-09T09:13:46.104Z,3.75
2024-05-09T09:16:14.314Z,3.92
2024-05-09T09:18:50.200Z,3.80
2024-05-09T09:21:18.020Z,4.05
2024-05-09T09:23:53.732Z,3.47
2024-05-09T09:26:25.173Z,3.70
2024-05-09T09:29:02.866Z,4.00
2024-05-09T09:31:30.229Z,3.78
2024-05-09T09:34:23.434Z,3.22
2024-05-09T09:36:51.908Z,3.38
2024-05-09T09:39:21.650Z,3.50
2024-05-09T09:41:49.387Z,3.20
2024-05-09T09:44:22.428Z,3.60
2024-05-09T09:46:58.856Z,4.00
2024-05-09T09:49:28.999Z,3.35
2024-05-09T09:51:56.403Z,4.07
2024-05-09T09:54:50.029Z,3.70
2024-05-09T09:57:22.470Z,3.58
2024-05-09T09:59:55.539Z,3.20
2024-05-09T10:02:23.099Z,3.03
2024-05-09T10:04:55.017Z,3.17
2024-05-09T10:07:22.595Z,2.92
2024-05-09T10:09:52.344Z,2.90
2024-05-09T10:12:20.937Z,3.10
2024-05-09T10:14:51.310Z,2.95
2024-05-09T10:17:22.770Z,2.90
2024-05-09T10:20:21.319Z,2.78
2024-05-09T10:22:52.031Z,3.10
2024-05-09T10:25:24.068Z,2.58
2024-05-09T10:27:55.336Z,3.08
2024-05-09T10:30:33.835Z,2.75
2024-05-09T10:33:10.290Z,2.88
2024-05-09T10:35:40.126Z,2.58
2024-05-09T10:38:07.327Z,2.50
2024-05-09T10:40:37.767Z,2.65
2024-05-09T10:43:06.482Z,2.55
2024-05-09T10:45:38.571Z,2.70
2024-05-09T10:48:09.316Z,2.38
2024-05-09T10:50:43.760Z,2.83
2024-05-09T10:53:10.887Z,2.70
2024-05-09T10:55:40.534Z,2.33
2024-05-09T10:58:16.438Z,2.58
2024-05-09T11:00:46.239Z,2.55
2024-05-09T11:03:16.718Z,2.90
2024-05-09T11:05:47.629Z,2.72
2024-05-09T11:08:14.802Z,2.78
2024-05-09T11:10:45.170Z,2.83
2024-05-09T11:13:12.424Z,3.22
2024-05-09T11:15:42.862Z,2.53
2024-05-09T11:18:24.967Z,2.13
2024-05-09T11:20:59.189Z,2.25
2024-05-09T11:23:30.687Z,2.45
2024-05-09T11:26:01.422Z,2.30
2024-05-09T11:28:29.278Z,2.63
2024-05-09T11:31:08.651Z,2.08
2024-05-09T11:33:37.684Z,2.28
2024-05-09T11:36:10.989Z,2.20
2024-05-09T11:38:38.144Z,2.35
2024-05-09T11:41:08.286Z,2.40
2024-05-09T11:43:35.564Z,2.92
2024-05-09T11:46:05.728Z,2.40
2024-05-09T11:48:33.016Z,2.53
2024-05-09T11:51:02.843Z,2.50
2024-05-09T11:53:32.923Z,2.40
2024-05-09T11:56:03.110Z,2.40
2024-05-09T11:58:34.416Z,2.20
2024-05-09T12:01:05.376Z,2.60
2024-05-09T12:03:35.326Z,1.92
2024-05-09T12:06:05.385Z,2.33
2024-05-09T12:08:35.310Z,2.47
2024-05-09T12:11:05.314Z,2.38
2024-05-09T12:13:32.506Z,2.47
2024-05-09T12:16:02.983Z,2.35
2024-05-09T12:18:31.598Z,2.25
2024-05-09T12:21:01.597Z,2.22
2024-05-09T12:23:28.858Z,2.20
2024-05-09T12:26:03.045Z,2.17
2024-05-09T12:28:30.497Z,2.30
2024-05-09T12:31:00.470Z,2.25
2024-05-09T12:33:27.779Z,2.47
2024-05-09T12:35:57.583Z,2.65
2024-05-09T12:38:25.076Z,2.72
2024-05-09T12:40:55.034Z,2.90
2024-05-09T12:43:25.215Z,2.47
2024-05-09T12:45:55.408Z,2.70
2024-05-09T12:48:22.607Z,2.75
2024-05-09T12:50:52.550Z,2.70
2024-05-09T12:53:21.138Z,2.92
2024-05-09T12:55:56.852Z,2.67
2024-05-09T12:58:30.060Z,2.60
2024-05-09T13:00:59.969Z,2.63
2024-05-09T13:03:27.327Z,2.80
2024-05-09T13:05:57.245Z,2.83
2024-05-09T13:08:24.578Z,2.30
2024-05-09T13:10:55.007Z,2.88
2024-05-09T13:13:22.250Z,2.47
2024-05-09T13:15:55.233Z,2.55
2024-05-09T13:18:22.339Z,2.20
2024-05-09T13:20:52.103Z,2.78
2024-05-09T13:23:19.299Z,2.38
2024-05-09T13:25:49.078Z,2.25
2024-05-09T13:28:16.299Z,2.15
2024-05-09T13:30:46.213Z,2.65
2024-05-09T13:33:16.207Z,2.50
2024-05-09T13:35:49.698Z,2.70
2024-05-09T13:38:18.226Z,2.22
2024-05-09T13:40:48.739Z,2.45
2024-05-09T13:43:16.353Z,2.22
2024-05-09T13:45:46.520Z,2.42
2024-05-09T13:48:16.547Z,2.90
2024-05-09T13:50:46.487Z,2.85
2024-05-09T13:53:13.469Z,2.35
2024-05-09T13:55:43.327Z,2.55
2024-05-09T13:58:10.430Z,2.47
2024-05-09T14:00:46.738Z,2.33
2024-05-09T14:03:20.287Z,2.33
2024-05-09T14:05:52.165Z,2.50
2024-05-09T14:08:21.594Z,2.70
2024-05-09T14:10:52.576Z,2.20
2024-05-09T14:13:20.210Z,2.40
2024-05-09T14:15:51.159Z,2.78
2024-05-09T14:18:23.731Z,2.40
2024-05-09T14:20:51.453Z,2.50
2024-05-09T14:23:22.024Z,2.45
2024-05-09T14:25:52.155Z,2.60
2024-05-09T14:28:22.933Z,2.88
2024-05-09T14:30:50.302Z,2.65
2024-05-09T14:33:25.423Z,2.63
2024-05-09T14:35:55.503Z,3.05
2024-05-09T14:38:25.395Z,2.50
2024-05-09T14:40:52.533Z,2.50
2024-05-09T14:43:22.525Z,2.60
2024-05-09T14:45:49.657Z,3.17
2024-05-09T14:48:20.096Z,2.83
2024-05-09T14:50:47.360Z,2.50
2024-05-09T14:53:19.825Z,2.97
2024-05-09T14:55:47.168Z,2.55
2024-05-09T14:58:17.496Z,2.50
2024-05-09T15:00:50.019Z,2.72
2024-05-09T15:03:22.197Z,2.53
2024-05-09T15:05:50.781Z,2.72
2024-05-09T15:08:24.720Z,2.70
2024-05-09T15:10:52.151Z,2.72
2024-05-09T15:13:22.265Z,2.88
2024-05-09T15:15:49.825Z,3.10
2024-05-09T15:18:19.866Z,2.60
2024-05-09T15:20:47.251Z,2.95
2024-05-09T15:23:17.558Z,2.63
2024-05-09T15:25:47.556Z,2.88
2024-05-09T15:28:17.672Z,2.55
2024-05-09T15:30:46.607Z,2.90
2024-05-09T15:33:17.177Z,2.40
2024-05-09T15:35:46.716Z,2.42
2024-05-09T15:38:18.442Z,2.40
2024-05-09T15:40:48.668Z,2.63
2024-05-09T15:43:18.670Z,2.97
2024-05-09T15:45:46.091Z,2.67
2024-05-09T15:48:16.411Z,3.05
2024-05-09T15:50:45.734Z,2.78
2024-05-09T15:53:15.629Z,2.78
2024-05-09T15:55:43.094Z,2.75
2024-05-09T15:58:16.273Z,3.08
2024-05-09T16:00:45.458Z,3.88
2024-05-09T16:03:16.737Z,2.63
2024-05-09T16:05:47.206Z,2.80
2024-05-09T16:08:18.055Z,2.88
2024-05-09T16:10:47.238Z,2.55
2024-05-09T16:13:20.671Z,2.60
2024-05-09T16:15:47.996Z,2.70
2024-05-09T16:18:18.081Z,2.33
2024-05-09T16:20:48.258Z,2.90
2024-05-09T16:23:19.840Z,2.67
2024-05-09T16:25:48.419Z,2.53
2024-05-09T16:28:22.711Z,2.53
2024-05-09T16:30:50.871Z,2.63
2024-05-09T16:33:23.712Z,3.15
2024-05-09T16:35:50.952Z,2.80
2024-05-09T16:38:20.892Z,2.92
2024-05-09T16:40:48.152Z,3.03
2024-05-09T16:43:20.606Z,2.70
2024-05-09T16:45:47.863Z,2.42
2024-05-09T16:48:17.795Z,3.17
2024-05-09T16:50:46.569Z,2.67
2024-05-09T16:53:16.782Z,3.05
2024-05-09T16:55:43.955Z,3.25
2024-05-09T16:58:14.458Z,2.83
2024-05-09T17:00:44.626Z,2.42
2024-05-09T17:03:16.216Z,2.58
2024-05-09T17:05:46.702Z,2.80
2024-05-09T17:08:18.450Z,2.70
2024-05-09T17:10:46.107Z,2.67
2024-05-09T17:13:16.083Z,2.65
2024-05-09T17:15:48.916Z,3.67
2024-05-09T17:18:19.247Z,3.60
2024-05-09T17:20:46.589Z,2.92
2024-05-09T17:23:16.552Z,3.00
2024-05-09T17:25:46.907Z,3.22
2024-05-09T17:28:14.184Z,3.08
2024-05-09T17:30:44.043Z,2.80
2024-05-09T17:33:14.014Z,3.28
2024-05-09T17:35:45.928Z,2.72
2024-05-09T17:38:13.572Z,3.00
2024-05-09T17:40:43.308Z,3.10
2024-05-09T17:43:11.127Z,2.78
2024-05-09T17:45:42.199Z,3.28
2024-05-09T17:48:10.934Z,2.30
2024-05-09T17:50:44.163Z,2.83
2024-05-09T17:53:11.522Z,2.72
2024-05-09T17:55:42.392Z,2.83
2024-05-09T17:58:09.967Z,2.80
2024-05-09T18:00:42.167Z,2.88
2024-05-09T18:03:12.071Z,2.60
2024-05-09T18:05:46.039Z,2.67
2024-05-09T18:08:13.709Z,2.72
2024-05-09T18:10:44.517Z,3.03
2024-05-09T18:13:12.509Z,2.80
2024-05-09T18:15:42.483Z,2.85
2024-05-09T18:18:10.841Z,2.80
2024-05-09T18:20:44.911Z,2.95
2024-05-09T18:23:18.230Z,2.97
2024-05-09T18:25:49.222Z,3.67
2024-05-09T18:28:17.404Z,3.10
2024-05-09T18:30:47.942Z,3.28
2024-05-09T18:33:15.785Z,3.72
2024-05-09T18:35:46.095Z,3.10
2024-05-09T18:38:16.078Z,3.60
2024-05-09T18:40:48.536Z,2.75
2024-05-09T18:43:16.900Z,3.05
2024-05-09T18:45:47.512Z,3.00
2024-05-09T18:48:15.430Z,3.33
2024-05-09T18:50:45.618Z,3.00
2024-05-09T18:53:13.582Z,3.40
2024-05-09T18:55:46.339Z,2.97
2024-05-09T18:58:13.529Z,3.13
2024-05-09T19:00:46.048Z,2.88
2024-05-09T19:03:16.006Z,3.13
2024-05-09T19:05:46.584Z,3.15
2024-05-09T19:08:15.062Z,3.10
2024-05-09T19:10:48.200Z,3.30
2024-05-09T19:13:15.737Z,3.15
2024-05-09T19:15:45.789Z,2.95
2024-05-09T19:18:14.036Z,2.80
2024-05-09T19:20:44.627Z,3.08
2024-05-09T19:23:12.153Z,2.72
2024-05-09T19:25:42.078Z,3.05
2024-05-09T19:28:11.983Z,2.85
2024-05-09T19:30:42.905Z,2.70
2024-05-09T19:33:12.456Z,3.03
2024-05-09T19:35:43.664Z,3.00
2024-05-09T19:38:11.256Z,2.78
2024-05-09T19:40:41.332Z,2.65
2024-05-09T19:43:08.896Z,2.95
2024-05-09T19:45:41.560Z,3.15
2024-05-09T19:48:09.071Z,3.20
2024-05-09T19:50:43.199Z,2.42
2024-05-09T19:53:12.491Z,3.05
2024-05-09T19:55:42.489Z,2.75
2024-05-09T19:58:09.927Z,2.78
2024-05-09T20:00:44.057Z,3.30
2024-05-09T20:03:13.071Z,3.00
2024-05-09T20:05:43.479Z,3.30
2024-05-09T20:08:10.703Z,3.40
2024-05-09T20:10:40.970Z,3.20
2024-05-09T20:13:08.695Z,3.45
2024-05-09T20:15:39.993Z,3.20
2024-05-09T20:18:10.085Z,3.25
2024-05-09T20:20:42.716Z,3.67
2024-05-09T20:23:12.634Z,3.47
2024-05-09T20:25:42.620Z,3.55
2024-05-09T20:28:10.662Z,3.58
2024-05-09T20:30:40.984Z,4.20
2024-05-09T20:33:12.431Z,4.13
2024-05-09T20:35:42.615Z,3.90
2024-05-09T20:38:09.620Z,4.05
2024-05-09T20:40:40.017Z,4.22
2024-05-09T20:43:08.572Z,4.15
2024-05-09T20:45:38.924Z,4.03
2024-05-09T20:48:07.413Z,3.75
2024-05-09T20:50:42.081Z,4.57
2024-05-09T20:53:10.000Z,3.97
2024-05-09T20:55:39.689Z,4.57
2024-05-09T20:58:06.820Z,4.60
2024-05-09T21:00:40.543Z,3.97
2024-05-09T21:03:11.466Z,3.75
2024-05-09T21:05:44.996Z,3.72
2024-05-09T21:08:12.416Z,3.70
2024-05-09T21:10:42.391Z,4.50
2024-05-09T21:13:09.565Z,4.00
2024-05-09T21:15:39.443Z,4.28
2024-05-09T21:18:06.699Z,4.00
2024-05-09T21:20:37.784Z,3.50
2024-05-09T21:23:07.896Z,4.15
2024-05-09T21:25:37.587Z,3.75
2024-05-09T21:28:04.934Z,3.97
2024-05-09T21:30:41.372Z,4.00
2024-05-09T21:33:11.913Z,4.13
2024-05-09T21:35:43.709Z,3.85
2024-05-09T21:38:14.748Z,3.97
2024-05-09T21:40:45.330Z,4.90
2024-05-09T21:43:13.127Z,4.07
2024-05-09T21:45:43.124Z,4.15
2024-05-09T21:48:12.712Z,4.40
2024-05-09T21:50:43.033Z,3.85
2024-05-09T21:53:10.597Z,4.20
2024-05-09T21:55:43.474Z,4.45
2024-05-09T21:58:10.693Z,4.32
2024-05-09T22:00:42.890Z,4.35
2024-05-09T22:03:11.190Z,4.20
2024-05-09T22:05:44.384Z,4.25
2024-05-09T22:08:11.940Z,4.63
2024-05-09T22:10:45.876Z,5.22
2024-05-09T22:13:13.449Z,4.60
2024-05-09T22:15:43.405Z,4.80
2024-05-09T22:18:11.592Z,4.63
2024-05-09T22:20:45.370Z,4.72
2024-05-09T22:23:13.692Z,4.40
2024-05-09T22:25:46.199Z,4.68
2024-05-09T22:28:15.642Z,4.93
2024-05-09T22:30:47.260Z,5.28
2024-05-09T22:33:15.144Z,4.30
2024-05-09T22:35:45.507Z,4.70
2024-05-09T22:38:12.680Z,5.07
2024-05-09T22:40:47.793Z,5.15
2024-05-09T22:43:21.339Z,5.13
2024-05-09T22:45:53.772Z,4.70
2024-05-09T22:48:21.302Z,4.97
2024-05-09T22:50:51.349Z,4.90
2024-05-09T22:53:18.456Z,4.90
2024-05-09T22:55:48.263Z,5.20
2024-05-09T22:58:15.353Z,5.57
2024-05-09T23:00:48.654Z,5.03
2024-05-09T23:03:16.603Z,5.43
2024-05-09T23:05:47.421Z,5.18
2024-05-09T23:08:14.513Z,5.78
2024-05-09T23:10:44.454Z,5.65
2024-05-09T23:13:11.666Z,4.65
2024-05-09T23:15:41.478Z,5.60
2024-05-09T23:18:11.367Z,5.40
2024-05-09T23:20:41.211Z,5.03
2024-05-09T23:23:09.611Z,5.32
2024-05-09T23:25:41.132Z,5.00
2024-05-09T23:28:08.530Z,4.68
2024-05-09T23:30:40.590Z,5.25
2024-05-09T23:33:13.056Z,5.18
2024-05-09T23:35:44.796Z,5.05
2024-05-09T23:38:12.091Z,5.53
2024-05-09T23:40:42.924Z,5.05
2024-05-09T23:43:11.644Z,4.68
2024-05-09T23:45:42.860Z,5.05
2024-05-09T23:48:12.930Z,4.90
2024-05-09T23:50:42.732Z,5.13
2024-05-09T23:53:10.729Z,4.78
2024-05-09T23:55:40.916Z,4.50
2024-05-09T23:58:08.449Z,5.38
